createdAt,value
2019-01-31T12:54:27.004Z,13.40
2019-01-31T12:57:08.742Z,12.07
2019-01-31T12:59:49.699Z,15.80
2019-01-31T13:02:30.690Z,9.90
2019-01-31T13:05:11.363Z,16.77
2019-01-31T13:07:52.189Z,13.90
2019-01-31T13:10:33.591Z,16.47
2019-01-31T13:13:15.106Z,16.93
2019-01-31T13:21:47.678Z,25.30
2019-01-31T13:27:48.309Z,25.80
2019-01-31T13:30:29.248Z,27.77
2019-01-31T13:33:10.572Z,29.50
2019-01-31T13:35:51.858Z,30.13
2019-01-31T13:41:20.097Z,39.03
2019-01-31T13:46:47.795Z,25.50
2019-01-31T13:49:29.962Z,28.60
2019-01-31T13:52:12.442Z,27.35
2019-01-31T13:57:37.946Z,27.85
2019-01-31T14:00:18.650Z,30.63
2019-01-31T14:03:01.211Z,30.10
2019-01-31T14:11:51.941Z,31.10
2019-01-31T14:17:23.398Z,29.95
2019-01-31T14:22:53.818Z,36.00
2019-01-31T14:28:20.186Z,33.80
2019-01-31T14:33:50.745Z,40.90
2019-01-31T14:39:21.231Z,36.60
2019-01-31T14:44:48.522Z,22.50
2019-01-31T14:53:14.519Z,25.90
2019-01-31T14:58:48.800Z,26.10
2019-01-31T15:04:40.407Z,28.80
2019-01-31T15:07:08.209Z,26.27
2019-01-31T15:09:54.688Z,26.87
2019-01-31T15:12:37.993Z,33.70
2019-01-31T15:15:24.746Z,24.13
2019-01-31T15:20:53.664Z,26.70
2019-01-31T15:23:34.843Z,28.87
2019-01-31T15:26:16.167Z,28.83
2019-01-31T15:28:59.474Z,32.30
2019-01-31T15:31:46.015Z,30.13
2019-01-31T15:37:21.844Z,25.65
2019-01-31T15:40:25.306Z,35.00
2019-01-31T15:42:57.104Z,34.15
2019-01-31T15:45:38.102Z,29.20
2019-01-31T15:48:19.747Z,33.80
2019-01-31T15:53:46.350Z,24.53
2019-01-31T15:56:27.152Z,31.67
2019-01-31T15:59:08.705Z,35.00
2019-01-31T16:07:20.390Z,42.20
2019-01-31T16:12:48.988Z,29.15
2019-01-31T16:15:30.187Z,48.55
2019-01-31T16:17:58.861Z,26.40
2019-01-31T16:20:46.831Z,31.47
2019-01-31T16:23:34.741Z,30.00
2019-01-31T16:26:16.091Z,26.70
2019-01-31T16:28:57.770Z,28.00
2019-01-31T16:34:25.138Z,27.27
2019-01-31T16:39:47.035Z,31.93
2019-01-31T16:48:12.424Z,37.20
2019-01-31T16:53:42.877Z,39.10
2019-01-31T16:59:13.261Z,44.33
2019-01-31T17:01:54.588Z,47.73
2019-01-31T17:04:35.652Z,49.53
2019-01-31T17:10:00.913Z,51.33
2019-01-31T17:12:41.851Z,52.43
2019-01-31T17:15:25.835Z,54.67
2019-01-31T17:18:07.054Z,53.13
2019-01-31T17:20:47.920Z,59.80
2019-01-31T17:23:30.756Z,61.23
2019-01-31T17:26:11.970Z,50.43
2019-01-31T17:28:52.979Z,54.63
2019-01-31T17:34:44.365Z,62.10
2019-01-31T17:37:25.714Z,66.30
2019-01-31T17:40:07.067Z,69.87
2019-01-31T17:42:48.002Z,60.93
2019-01-31T17:45:30.782Z,63.97
2019-01-31T17:48:13.472Z,61.07
2019-01-31T17:53:40.310Z,67.47
2019-01-31T17:56:21.301Z,56.75
2019-01-31T17:59:01.639Z,65.63
2019-01-31T18:01:42.517Z,72.10
2019-01-31T18:04:24.136Z,72.73
2019-01-31T18:07:04.670Z,71.30
2019-01-31T18:09:45.678Z,66.53
2019-01-31T18:12:27.364Z,75.77
2019-01-31T18:15:12.542Z,80.43
2019-01-31T18:17:53.396Z,73.27
2019-01-31T18:20:34.470Z,70.70
2019-01-31T18:23:15.195Z,65.05
2019-01-31T18:25:56.298Z,78.00
2019-01-31T18:34:53.452Z,61.47
2019-01-31T18:37:34.609Z,76.77
2019-01-31T18:40:17.296Z,84.37
2019-01-31T18:45:53.442Z,98.30
2019-01-31T18:48:31.036Z,87.15
2019-01-31T18:51:12.661Z,98.10
2019-01-31T18:54:08.109Z,83.03
2019-01-31T18:56:51.591Z,86.80
2019-01-31T18:59:32.860Z,73.73
2019-01-31T19:02:33.832Z,89.20
2019-01-31T19:05:18.772Z,78.87
2019-01-31T19:14:01.156Z,82.50
2019-01-31T19:16:48.227Z,81.90
2019-01-31T19:19:30.949Z,97.85
2019-01-31T19:22:14.646Z,146.80
2019-01-31T19:24:59.472Z,130.63
2019-01-31T19:28:02.748Z,86.40
2019-01-31T19:30:47.360Z,94.70
2019-01-31T19:38:59.016Z,77.27
2019-01-31T19:41:42.874Z,79.85
2019-01-31T19:44:59.833Z,85.85
2019-01-31T19:50:16.647Z,79.60
2019-01-31T19:58:54.455Z,84.45
2019-01-31T20:01:39.203Z,78.77
2019-01-31T20:13:22.203Z,74.85
2019-01-31T20:16:03.801Z,74.50
2019-01-31T20:18:51.543Z,72.47
2019-01-31T20:25:28.515Z,73.27
2019-01-31T20:27:58.004Z,78.17
2019-01-31T20:30:48.887Z,80.47
2019-01-31T20:36:00.505Z,87.27
2019-01-31T20:38:45.987Z,76.47
2019-01-31T20:41:35.907Z,77.83
2019-01-31T20:44:20.652Z,86.53
2019-01-31T20:47:00.446Z,76.53
2019-01-31T20:49:29.110Z,89.27
2019-01-31T20:52:17.438Z,77.67
2019-01-31T20:55:26.073Z,91.63
2019-01-31T20:58:30.576Z,79.60
2019-01-31T21:01:06.029Z,83.90
2019-01-31T21:06:51.215Z,75.17
2019-01-31T21:10:00.307Z,84.27
2019-01-31T21:15:37.952Z,72.05
2019-01-31T21:18:26.592Z,78.10
2019-01-31T21:21:15.727Z,84.83
2019-01-31T21:24:03.958Z,59.67
2019-01-31T21:26:44.664Z,72.93
2019-01-31T21:32:09.885Z,68.00
2019-01-31T21:34:51.299Z,80.23
2019-01-31T21:40:37.378Z,75.87
2019-01-31T21:43:18.860Z,65.30
2019-01-31T21:48:45.315Z,69.07
2019-01-31T21:51:28.116Z,80.60
2019-01-31T21:54:11.770Z,83.10
2019-01-31T21:59:38.336Z,76.00
2019-01-31T22:05:03.580Z,76.87
2019-01-31T22:10:29.507Z,75.10
2019-01-31T22:13:10.387Z,76.60
2019-01-31T22:19:01.636Z,75.37
2019-01-31T22:21:43.515Z,83.93
2019-01-31T22:27:14.097Z,69.57
2019-01-31T22:32:39.629Z,74.77
2019-01-31T22:35:22.107Z,68.43
2019-01-31T22:38:03.746Z,72.10
2019-01-31T22:40:44.612Z,81.63
2019-01-31T22:43:26.179Z,77.73
2019-01-31T22:46:07.123Z,80.97
2019-01-31T22:48:48.003Z,82.30
2019-01-31T22:51:30.196Z,84.20
2019-01-31T22:56:57.278Z,78.83
2019-01-31T23:02:17.862Z,71.63
2019-01-31T23:04:58.900Z,78.10
2019-01-31T23:07:40.258Z,79.93
2019-01-31T23:13:10.366Z,71.83
2019-01-31T23:15:52.047Z,76.40
2019-01-31T23:18:33.200Z,77.60
2019-01-31T23:21:14.003Z,89.83
2019-01-31T23:23:54.885Z,80.47
2019-01-31T23:26:36.508Z,82.77
2019-01-31T23:32:14.129Z,74.40
2019-01-31T23:34:58.952Z,73.17
2019-01-31T23:37:40.572Z,81.63
2019-01-31T23:40:21.234Z,75.97
2019-01-31T23:43:01.754Z,76.40
2019-01-31T23:45:46.595Z,81.90
2019-01-31T23:48:30.591Z,75.00
2019-01-31T23:51:11.710Z,83.50
2019-01-31T23:53:53.430Z,65.43
2019-01-31T23:59:19.279Z,75.40
